Météo Nord-Pas-de-Calais   La météo au plus près de chez vous

Station météorologique

Observations météo à Dunkerque (59183)

59183001 11 m Dernier relevé à 16:24
22.7°C
Humidité 80 % Vent 21.6 km/h 1018.6 hPa

Journée consultée

Jeudi 3 Septembre 2026

Synthèse de la journée

Périodes de référence en UTC

Température maximale

22.7°C

à 16:24

06h 06h

Température minimale

19°C

à 02:00

18h 18h

Rafale maximale

50 km/h

à 03:42

00h 00h

Précipitations

0.2 mm

Cumul quotidien

06h 06h

Graphiques de la journée

Heure locale Réduire

Données détaillées

Relevés météo

Pas de 6 minutes Afficher les relevés infra-horaires
Relevés météo détaillés à Dunkerque pour le Jeudi 3 Septembre 2026
Heure Température °C Point de rosée °C Humidité % Vent moyen (raf.), km/h Précipitations mm Pression hPa Nébulosité Octas
16:24 22.7 °C 18 °C 75 % 23 km/h (42 km/h) 0 mm0 mm 1018.4 hPa
16:18 22.3 °C 17.4 °C 74 % 24 km/h (48 km/h) 0 mm0 mm 1018.4 hPa
16:12 22.6 °C 17.7 °C 74 % 24 km/h (48 km/h) 0 mm0 mm 1018.4 hPa
16:06 22.6 °C 17.9 °C 75 % 23 km/h (41 km/h) 0 mm0 mm 1018.4 hPa
16:00 22.2 °C 18.4 °C 79 % 23 km/h (39 km/h) 0 mm0 mm 1018.5 hPa
15:54 21.9 °C 18.1 °C 79 % 23 km/h (45 km/h) 0 mm0 mm 1018.5 hPa
15:48 22 °C 18.4 °C 80 % 21 km/h (44 km/h) 0 mm0 mm 1018.5 hPa
15:42 21.9 °C 18.1 °C 79 % 22 km/h (44 km/h) 0 mm0 mm 1018.6 hPa
15:36 21.8 °C 18.2 °C 80 % 21 km/h (39 km/h) 0 mm0 mm 1018.6 hPa
15:30 21.7 °C 18.1 °C 80 % 22 km/h (36 km/h) 0 mm0 mm 1018.6 hPa
15:24 21.8 °C 18.2 °C 80 % 22 km/h (36 km/h) 0 mm0 mm 1018.6 hPa
15:18 21.9 °C 18.3 °C 80 % 24 km/h (40 km/h) 0 mm0 mm 1018.6 hPa
15:12 21.8 °C 18.4 °C 81 % 23 km/h (40 km/h) 0 mm0 mm 1018.6 hPa
15:06 21.6 °C 18.2 °C 81 % 22 km/h (37 km/h) 0 mm0 mm 1018.7 hPa
15:00 21.6 °C 18 °C 80 % 23 km/h (41 km/h) 0 mm0 mm 1018.6 hPa
14:54 21.7 °C 17.9 °C 79 % 23 km/h (44 km/h) 0 mm0 mm 1018.5 hPa
14:48 22 °C 18 °C 78 % 24 km/h (44 km/h) 0 mm0 mm 1018.8 hPa
14:42 21.9 °C 17.7 °C 77 % 22 km/h (41 km/h) 0 mm0 mm 1018.9 hPa
14:36 22.1 °C 18.1 °C 78 % 22 km/h (39 km/h) 0 mm0 mm 1018.9 hPa
14:30 22 °C 17.8 °C 77 % 21 km/h (40 km/h) 0 mm0 mm 1018.9 hPa
14:24 21.9 °C 17.7 °C 77 % 26 km/h (46 km/h) 0 mm0 mm 1018.5 hPa
14:18 22.2 °C 18 °C 77 % 23 km/h (44 km/h) 0 mm0 mm 1018.8 hPa
14:12 21.9 °C 17.7 °C 77 % 21 km/h (39 km/h) 0 mm0 mm 1018.5 hPa
14:06 22 °C 17.8 °C 77 % 23 km/h (40 km/h) 0 mm0 mm 1018.5 hPa
14:00 22.1 °C 17.9 °C 77 % 23 km/h (40 km/h) 0 mm0 mm 1019.1 hPa
13:54 21.8 °C 18 °C 79 % 21 km/h (37 km/h) 0 mm0 mm 1018.6 hPa
13:48 21.8 °C 17.6 °C 77 % 19 km/h (37 km/h) 0 mm0 mm 1018.6 hPa
13:42 21.9 °C 17.7 °C 77 % 21 km/h (36 km/h) 0 mm0 mm 1018.6 hPa
13:36 21.9 °C 17.9 °C 78 % 23 km/h (44 km/h) 0 mm0 mm 1018.7 hPa
13:30 21.9 °C 17.9 °C 78 % 21 km/h (44 km/h) 0 mm0 mm 1018.7 hPa
13:24 21.9 °C 17.7 °C 77 % 22 km/h (50 km/h) 0 mm0 mm 1018.5 hPa
13:18 22.1 °C 18.1 °C 78 % 26 km/h (50 km/h) 0 mm0 mm 1018.5 hPa
13:12 22 °C 17.6 °C 76 % 25 km/h (50 km/h) 0 mm0 mm 1018.4 hPa
13:06 22.4 °C 18 °C 76 % 24 km/h (42 km/h) 0 mm0 mm 1018.2 hPa
13:00 22.2 °C 18 °C 77 % 24 km/h (45 km/h) 0 mm0 mm 1018.3 hPa
12:54 22.2 °C 18.2 °C 78 % 22 km/h (45 km/h) 0 mm0 mm 1018.3 hPa
12:48 22.2 °C 18.2 °C 78 % 26 km/h (46 km/h) 0 mm0 mm 1018.3 hPa
12:42 22.1 °C 18.1 °C 78 % 26 km/h (47 km/h) 0 mm0 mm 1018.2 hPa
12:36 21.8 °C 18.6 °C 82 % 23 km/h (47 km/h) 0 mm0 mm 1018.4 hPa
12:30 21.5 °C 18.3 °C 82 % 23 km/h (40 km/h) 0 mm0 mm 1018.6 hPa
12:24 21.1 °C 18.1 °C 83 % 23 km/h (42 km/h) 0 mm0 mm 1018.6 hPa
12:18 20.9 °C 18.5 °C 86 % 19 km/h (41 km/h) 0 mm0 mm 1018.7 hPa
12:12 20.8 °C 18.4 °C 86 % 22 km/h (41 km/h) 0 mm0 mm 1018.9 hPa
12:06 20.7 °C 18.5 °C 87 % 25 km/h (42 km/h) 0 mm0 mm 1018.7 hPa
12:00 20.8 °C 18.6 °C 87 % 26 km/h (42 km/h) 0 mm0.2 mm 1018.7 hPa
11:54 20.6 °C 18.5 °C 88 % 26 km/h (42 km/h) 0 mm0 mm 1018.5 hPa
11:48 20.5 °C 18.4 °C 88 % 23 km/h (39 km/h) 0.2 mm0 mm 1018.4 hPa
11:42 20.8 °C 18.4 °C 86 % 22 km/h (39 km/h) 0 mm0 mm 1018.6 hPa
11:36 20.5 °C 18.3 °C 87 % 22 km/h (45 km/h) 0 mm0 mm 1018.5 hPa
11:30 20.4 °C 18.2 °C 87 % 18 km/h (45 km/h) 0 mm0 mm 1018.5 hPa
11:24 20.4 °C 18.2 °C 87 % 20 km/h (41 km/h) 0 mm0 mm 1018.4 hPa
11:18 20.3 °C 18.2 °C 88 % 25 km/h (42 km/h) 0 mm0 mm 1018.1 hPa
11:12 20.2 °C 18.3 °C 89 % 22 km/h (42 km/h) 0 mm0 mm 1018 hPa
11:06 20.3 °C 18.4 °C 89 % 21 km/h (35 km/h) 0 mm0 mm 1018.3 hPa
11:00 20.3 °C 18.4 °C 89 % 21 km/h (35 km/h) 0 mm0 mm 1018.3 hPa
10:54 20.1 °C 18 °C 88 % 19 km/h (34 km/h) 0 mm0 mm 1018.3 hPa
10:48 20.1 °C 18.2 °C 89 % 21 km/h (36 km/h) 0 mm0 mm 1018.3 hPa
10:42 20.1 °C 18.2 °C 89 % 18 km/h (33 km/h) 0 mm0 mm 1018.2 hPa
10:36 20.1 °C 18.2 °C 89 % 21 km/h (40 km/h) 0 mm0 mm 1018 hPa
10:30 20 °C 18.1 °C 89 % 22 km/h (40 km/h) 0 mm0 mm 1017.9 hPa
10:24 20 °C 18.1 °C 89 % 19 km/h (37 km/h) 0 mm0 mm 1017.8 hPa
10:18 19.9 °C 18 °C 89 % 21 km/h (37 km/h) 0 mm0 mm 1018 hPa
10:12 19.8 °C 18.1 °C 90 % 22 km/h (39 km/h) 0 mm0 mm 1018.1 hPa
10:06 19.8 °C 18.1 °C 90 % 22 km/h (39 km/h) 0 mm0 mm 1018.1 hPa
10:00 19.8 °C 18.1 °C 90 % 19 km/h (36 km/h) 0 mm0 mm 1018.1 hPa
09:54 19.9 °C 18 °C 89 % 19 km/h (36 km/h) 0 mm0 mm 1018.4 hPa
09:48 20 °C 18.1 °C 89 % 22 km/h (45 km/h) 0 mm0 mm 1018.2 hPa
09:42 19.8 °C 17.9 °C 89 % 25 km/h (45 km/h) 0 mm0 mm 1018.1 hPa
09:36 19.9 °C 18 °C 89 % 25 km/h (41 km/h) 0 mm0 mm 1018.1 hPa
09:30 19.7 °C 17.8 °C 89 % 21 km/h (41 km/h) 0 mm0 mm 1018 hPa
09:24 19.7 °C 17.8 °C 89 % 22 km/h (45 km/h) 0 mm0 mm 1018.1 hPa
09:18 19.6 °C 17.9 °C 90 % 23 km/h (42 km/h) 0 mm0 mm 1018.1 hPa
09:12 19.6 °C 17.9 °C 90 % 23 km/h (41 km/h) 0 mm0 mm 1018 hPa
09:06 19.7 °C 18 °C 90 % 22 km/h (41 km/h) 0 mm0 mm 1018.2 hPa
09:00 19.7 °C 17.8 °C 89 % 22 km/h (41 km/h) 0 mm0 mm 1018.1 hPa
08:54 19.9 °C 18.2 °C 90 % 23 km/h (42 km/h) 0 mm0 mm 1018.1 hPa
08:48 19.8 °C 17.9 °C 89 % 23 km/h (42 km/h) 0 mm0 mm 1017.8 hPa
08:42 19.8 °C 17.8 °C 88 % 25 km/h (42 km/h) 0 mm0 mm 1017.8 hPa
08:36 19.8 °C 17.9 °C 89 % 23 km/h (41 km/h) 0 mm0 mm 1017.8 hPa
08:30 19.7 °C 17.7 °C 88 % 22 km/h (44 km/h) 0 mm0 mm 1017.7 hPa
08:24 19.7 °C 17.5 °C 87 % 22 km/h (47 km/h) 0 mm0 mm 1017.5 hPa
08:18 19.8 °C 17.6 °C 87 % 23 km/h (47 km/h) 0 mm0 mm 1017.3 hPa
08:12 19.8 °C 17.6 °C 87 % 23 km/h (40 km/h) 0 mm0 mm 1017.4 hPa
08:06 19.8 °C 17.6 °C 87 % 23 km/h (40 km/h) 0 mm0 mm 1017.5 hPa
08:00 19.7 °C 17.5 °C 87 % 24 km/h (44 km/h) 0 mm0 mm 1018.1 hPa 6 Octas
07:54 19.6 °C 17.2 °C 86 % 23 km/h (44 km/h) 0 mm0 mm 1017.1 hPa
07:48 19.6 °C 17.2 °C 86 % 19 km/h (36 km/h) 0 mm0 mm 1016.9 hPa
07:42 19.6 °C 17.4 °C 87 % 18 km/h (38 km/h) 0 mm0 mm 1016.8 hPa
07:36 19.5 °C 16.9 °C 85 % 19 km/h (38 km/h) 0 mm0 mm 1016.9 hPa
07:30 19.7 °C 17.3 °C 86 % 21 km/h (38 km/h) 0 mm0 mm 1017 hPa
07:24 19.6 °C 17.2 °C 86 % 20 km/h (38 km/h) 0 mm0 mm 1017.5 hPa
07:18 19.5 °C 16.7 °C 84 % 19 km/h (34 km/h) 0 mm0 mm 1017.1 hPa
07:12 19.6 °C 16.8 °C 84 % 20 km/h (40 km/h) 0 mm0 mm 1017 hPa
07:06 19.5 °C 16.7 °C 84 % 21 km/h (40 km/h) 0 mm0 mm 1017 hPa
07:00 19.6 °C 16.8 °C 84 % 21 km/h (38 km/h) 0 mm0 mm 1017 hPa
06:54 19.6 °C 16.8 °C 84 % 22 km/h (43 km/h) 0 mm0 mm 1017.4 hPa
06:48 19.6 °C 16.8 °C 84 % 22 km/h (40 km/h) 0 mm0 mm 1017.3 hPa
06:42 19.5 °C 16.5 °C 83 % 21 km/h (39 km/h) 0 mm0 mm 1016.9 hPa
06:36 19.5 °C 16.5 °C 83 % 22 km/h (40 km/h) 0 mm0 mm 1016.9 hPa
06:30 19.6 °C 16.8 °C 84 % 22 km/h (40 km/h) 0 mm0 mm 1017 hPa
06:24 19.4 °C 16.6 °C 84 % 19 km/h (36 km/h) 0 mm0 mm 1017 hPa
06:18 19.6 °C 17 °C 85 % 20 km/h (34 km/h) 0 mm0 mm 1016.9 hPa
06:12 19.4 °C 16.6 °C 84 % 22 km/h (37 km/h) 0 mm0 mm 1016.8 hPa
06:06 19.5 °C 16.9 °C 85 % 22 km/h (41 km/h) 0 mm0 mm 1017 hPa
06:00 19.6 °C 17 °C 85 % 23 km/h (42 km/h) 0 mm0 mm 1017 hPa
05:54 19.6 °C 17 °C 85 % 25 km/h (42 km/h) 0 mm0 mm 1017.3 hPa
05:48 19.5 °C 16.7 °C 84 % 24 km/h (40 km/h) 0 mm0 mm 1016.9 hPa
05:42 19.6 °C 17 °C 85 % 23 km/h (42 km/h) 0 mm0 mm 1016.7 hPa
05:36 19.6 °C 17 °C 85 % 24 km/h (42 km/h) 0 mm0 mm 1016.8 hPa
05:30 19.6 °C 16.8 °C 84 % 23 km/h (41 km/h) 0 mm0 mm 1017.1 hPa
05:24 19.7 °C 16.9 °C 84 % 21 km/h (36 km/h) 0 mm0 mm 1017.1 hPa
05:18 19.7 °C 16.9 °C 84 % 21 km/h (38 km/h) 0 mm0 mm 1017.3 hPa
05:12 19.7 °C 16.9 °C 84 % 23 km/h (44 km/h) 0 mm0 mm 1017.7 hPa
05:06 19.6 °C 16.8 °C 84 % 25 km/h (46 km/h) 0 mm0 mm 1017.1 hPa
05:00 19.7 °C 16.9 °C 84 % 24 km/h (46 km/h) 0 mm0 mm 1017.2 hPa 6 Octas
04:54 19.7 °C 17.1 °C 85 % 22 km/h (42 km/h) 0 mm0 mm 1017.2 hPa
04:48 19.6 °C 16.8 °C 84 % 23 km/h (42 km/h) 0 mm0 mm 1017.1 hPa
04:42 19.6 °C 16.8 °C 84 % 24 km/h (46 km/h) 0 mm0 mm 1017 hPa
04:36 19.8 °C 16.8 °C 83 % 24 km/h (46 km/h) 0 mm0 mm 1016.9 hPa
04:30 19.7 °C 16.5 °C 82 % 22 km/h (38 km/h) 0 mm0 mm 1017.2 hPa
04:24 19.8 °C 16.8 °C 83 % 19 km/h (33 km/h) 0 mm0 mm 1017.2 hPa
04:18 19.9 °C 16.9 °C 83 % 18 km/h (35 km/h) 0 mm0 mm 1017.4 hPa
04:12 19.9 °C 16.9 °C 83 % 22 km/h (36 km/h) 0 mm0 mm 1017.3 hPa
04:06 19.9 °C 16.5 °C 81 % 21 km/h (37 km/h) 0 mm0 mm 1017.4 hPa
04:00 20 °C 16.8 °C 82 % 22 km/h (41 km/h) 0 mm0 mm 1017.5 hPa
03:54 20 °C 16.8 °C 82 % 27 km/h (46 km/h) 0 mm0 mm 1018.1 hPa
03:48 20 °C 16.8 °C 82 % 29 km/h (50 km/h) 0 mm0 mm 1017.6 hPa
03:42 20 °C 17 °C 83 % 28 km/h (50 km/h) 0 mm0 mm 1017.7 hPa
03:36 20 °C 17.2 °C 84 % 25 km/h (44 km/h) 0 mm0 mm 1017.6 hPa
03:30 19.9 °C 17.1 °C 84 % 24 km/h (39 km/h) 0 mm0 mm 1017.5 hPa
03:24 19.9 °C 17.1 °C 84 % 23 km/h (41 km/h) 0 mm0 mm 1017.7 hPa
03:18 20 °C 17.6 °C 86 % 22 km/h (41 km/h) 0 mm0 mm 1017.7 hPa
03:12 20 °C 17.4 °C 85 % 20 km/h (34 km/h) 0 mm0 mm 1017.5 hPa
03:06 20 °C 17.4 °C 85 % 17 km/h (28 km/h) 0 mm0 mm 1017.5 hPa
03:00 20 °C 17.2 °C 84 % 18 km/h (33 km/h) 0 mm0 mm 1017.5 hPa
02:54 20 °C 17.2 °C 84 % 19 km/h (34 km/h) 0 mm0 mm 1017.5 hPa
02:48 20 °C 17.2 °C 84 % 20 km/h (35 km/h) 0 mm0 mm 1017.5 hPa
02:42 19.9 °C 17.3 °C 85 % 21 km/h (35 km/h) 0 mm0 mm 1017.7 hPa
02:36 19.8 °C 17.2 °C 85 % 20 km/h (32 km/h) 0 mm0 mm 1017.8 hPa
02:30 19.8 °C 17.4 °C 86 % 18 km/h (31 km/h) 0 mm0 mm 1018 hPa
02:24 19.8 °C 17.2 °C 85 % 19 km/h (36 km/h) 0 mm0 mm 1018.1 hPa
02:18 19.7 °C 17.3 °C 86 % 17 km/h (30 km/h) 0 mm0 mm 1018.2 hPa
02:12 19.7 °C 17.5 °C 87 % 18 km/h (32 km/h) 0 mm0 mm 1018.3 hPa
02:06 19.5 °C 17.3 °C 87 % 18 km/h (32 km/h) 0 mm0 mm 1018.3 hPa
02:00 19.2 °C 17.2 °C 88 % 18 km/h (28 km/h) 0 mm0 mm 1018.3 hPa
01:54 19.1 °C 17.2 °C 89 % 19 km/h (31 km/h) 0 mm0 mm 1018.4 hPa
01:48 19.1 °C 17.1 °C 88 % 20 km/h (35 km/h) 0 mm0 mm 1018.4 hPa
01:42 19.1 °C 17.2 °C 89 % 18 km/h (33 km/h) 0 mm0 mm 1018.3 hPa
01:36 19.2 °C 17 °C 87 % 18 km/h (32 km/h) 0 mm0 mm 1018.2 hPa
01:30 19.4 °C 16.6 °C 84 % 21 km/h (34 km/h) 0 mm0 mm 1018.3 hPa
01:24 19.8 °C 16.6 °C 82 % 21 km/h (38 km/h) 0 mm0 mm 1018.5 hPa
01:18 19.9 °C 16.5 °C 81 % 20 km/h (38 km/h) 0 mm0 mm 1018.6 hPa
01:12 20.2 °C 16.4 °C 79 % 18 km/h (35 km/h) 0 mm0 mm 1018.7 hPa
01:06 20.2 °C 16 °C 77 % 17 km/h (30 km/h) 0 mm0 mm 1018.6 hPa
01:00 19.8 °C 15.4 °C 76 % 18 km/h (27 km/h) 0 mm0 mm 1018.7 hPa
00:54 19.6 °C 14.8 °C 74 % 18 km/h (27 km/h) 0 mm0 mm 1018.6 hPa
00:48 19.5 °C 14.5 °C 73 % 20 km/h (34 km/h) 0 mm0 mm 1018.7 hPa
00:42 19.4 °C 14.4 °C 73 % 19 km/h (34 km/h) 0 mm0 mm 1018.6 hPa
00:36 19.4 °C 14.2 °C 72 % 19 km/h (28 km/h) 0 mm0 mm 1018.7 hPa
00:30 19.4 °C 14 °C 71 % 21 km/h (32 km/h) 0 mm0 mm 1018.8 hPa
00:24 19.5 °C 14.1 °C 71 % 21 km/h (31 km/h) 0 mm0 mm 1018.9 hPa
00:18 19.5 °C 13.9 °C 70 % 21 km/h (30 km/h) 0 mm0 mm 1019.1 hPa
00:12 19.6 °C 14 °C 70 % 20 km/h (33 km/h) 0 mm0 mm 1019 hPa
00:06 19.6 °C 14 °C 70 % 19 km/h (33 km/h) 0 mm0 mm 1019 hPa
00:00 19.4 °C 14 °C 71 % 16 km/h (27 km/h) 0 mm0 mm 1019 hPa

Données via Météo-France

Relevés météo à Dunkerque

Cette page rassemble les observations de la station de Dunkerque : température, humidité, vent, précipitations et pression atmosphérique. Les graphiques facilitent le suivi de la journée, tandis que le tableau donne accès aux mesures horaires et infra-horaires disponibles.

Pour replacer ces mesures dans leur contexte, consultez la climatologie de Dunkerque ainsi que ses normales et records. Retrouvez aussi la carte des observations météo en temps réel.